sensor_id;sensor_type;location;lat;lon;timestamp;P1;durP1;ratioP1;P2;durP2;ratioP2
4889;SDS011;2459;42.268;23.112;2022-11-24T00:01:25;19.47;;;9.30;;
4889;SDS011;2459;42.268;23.112;2022-11-24T00:03:52;19.07;;;8.07;;
4889;SDS011;2459;42.268;23.112;2022-11-24T00:06:19;19.60;;;8.67;;
4889;SDS011;2459;42.268;23.112;2022-11-24T00:08:47;24.03;;;7.03;;
4889;SDS011;2459;42.268;23.112;2022-11-24T00:11:14;14.10;;;7.57;;
4889;SDS011;2459;42.268;23.112;2022-11-24T00:13:40;16.60;;;9.17;;
4889;SDS011;2459;42.268;23.112;2022-11-24T00:16:08;11.00;;;6.53;;
4889;SDS011;2459;42.268;23.112;2022-11-24T00:18:35;23.07;;;10.10;;
4889;SDS011;2459;42.268;23.112;2022-11-24T00:21:01;23.10;;;13.67;;
4889;SDS011;2459;42.268;23.112;2022-11-24T00:23:28;65.10;;;25.33;;
4889;SDS011;2459;42.268;23.112;2022-11-24T00:26:01;53.67;;;18.57;;
4889;SDS011;2459;42.268;23.112;2022-11-24T00:28:27;17.90;;;7.10;;
4889;SDS011;2459;42.268;23.112;2022-11-24T00:30:54;24.73;;;7.50;;
4889;SDS011;2459;42.268;23.112;2022-11-24T00:33:20;15.00;;;6.70;;
4889;SDS011;2459;42.268;23.112;2022-11-24T00:35:52;19.83;;;9.10;;
4889;SDS011;2459;42.268;23.112;2022-11-24T00:38:18;13.43;;;7.20;;
4889;SDS011;2459;42.268;23.112;2022-11-24T00:40:45;25.80;;;7.87;;
4889;SDS011;2459;42.268;23.112;2022-11-24T00:43:13;14.67;;;7.47;;
4889;SDS011;2459;42.268;23.112;2022-11-24T00:45:40;37.27;;;15.47;;
4889;SDS011;2459;42.268;23.112;2022-11-24T00:48:07;77.13;;;24.93;;
4889;SDS011;2459;42.268;23.112;2022-11-24T00:50:33;55.60;;;19.80;;
4889;SDS011;2459;42.268;23.112;2022-11-24T00:53:00;103.40;;;33.83;;
4889;SDS011;2459;42.268;23.112;2022-11-24T00:55:26;29.73;;;18.53;;
4889;SDS011;2459;42.268;23.112;2022-11-24T00:57:52;15.90;;;8.20;;
4889;SDS011;2459;42.268;23.112;2022-11-24T01:00:20;14.30;;;7.53;;
4889;SDS011;2459;42.268;23.112;2022-11-24T01:02:47;11.90;;;6.40;;
4889;SDS011;2459;42.268;23.112;2022-11-24T01:05:13;10.03;;;5.13;;
4889;SDS011;2459;42.268;23.112;2022-11-24T01:07:40;51.80;;;19.90;;
4889;SDS011;2459;42.268;23.112;2022-11-24T01:10:07;41.43;;;15.60;;
4889;SDS011;2459;42.268;23.112;2022-11-24T01:12:33;15.63;;;8.37;;
4889;SDS011;2459;42.268;23.112;2022-11-24T01:15:00;18.57;;;8.10;;
4889;SDS011;2459;42.268;23.112;2022-11-24T01:17:28;15.63;;;7.87;;
4889;SDS011;2459;42.268;23.112;2022-11-24T01:19:54;15.60;;;6.90;;
4889;SDS011;2459;42.268;23.112;2022-11-24T01:22:21;14.37;;;7.17;;
4889;SDS011;2459;42.268;23.112;2022-11-24T01:24:49;19.10;;;7.93;;
4889;SDS011;2459;42.268;23.112;2022-11-24T01:27:15;29.40;;;13.07;;
4889;SDS011;2459;42.268;23.112;2022-11-24T01:29:41;76.80;;;26.97;;
4889;SDS011;2459;42.268;23.112;2022-11-24T01:32:08;27.80;;;10.33;;
4889;SDS011;2459;42.268;23.112;2022-11-24T01:34:36;44.37;;;15.70;;
4889;SDS011;2459;42.268;23.112;2022-11-24T01:37:02;25.63;;;11.53;;
4889;SDS011;2459;42.268;23.112;2022-11-24T01:39:29;17.20;;;8.77;;
4889;SDS011;2459;42.268;23.112;2022-11-24T01:41:55;12.40;;;7.50;;
4889;SDS011;2459;42.268;23.112;2022-11-24T01:44:26;15.60;;;8.20;;
4889;SDS011;2459;42.268;23.112;2022-11-24T01:46:54;29.47;;;12.70;;
4889;SDS011;2459;42.268;23.112;2022-11-24T01:49:23;170.63;;;63.43;;
4889;SDS011;2459;42.268;23.112;2022-11-24T01:51:52;61.50;;;21.60;;
4889;SDS011;2459;42.268;23.112;2022-11-24T01:54:21;34.97;;;11.53;;
4889;SDS011;2459;42.268;23.112;2022-11-24T01:56:50;18.77;;;9.30;;
4889;SDS011;2459;42.268;23.112;2022-11-24T01:59:18;19.13;;;7.40;;
4889;SDS011;2459;42.268;23.112;2022-11-24T02:01:45;16.10;;;8.20;;
4889;SDS011;2459;42.268;23.112;2022-11-24T02:04:13;27.17;;;11.53;;
4889;SDS011;2459;42.268;23.112;2022-11-24T02:06:41;20.80;;;9.73;;
4889;SDS011;2459;42.268;23.112;2022-11-24T02:09:12;30.00;;;7.90;;
4889;SDS011;2459;42.268;23.112;2022-11-24T02:11:41;14.80;;;8.13;;
4889;SDS011;2459;42.268;23.112;2022-11-24T02:14:09;20.10;;;9.70;;
4889;SDS011;2459;42.268;23.112;2022-11-24T02:16:37;26.93;;;10.47;;
4889;SDS011;2459;42.268;23.112;2022-11-24T02:21:46;15.10;;;7.17;;
4889;SDS011;2459;42.268;23.112;2022-11-24T02:24:15;18.63;;;6.87;;
4889;SDS011;2459;42.268;23.112;2022-11-24T02:26:45;12.73;;;7.40;;
4889;SDS011;2459;42.268;23.112;2022-11-24T02:29:12;14.30;;;6.70;;
4889;SDS011;2459;42.268;23.112;2022-11-24T02:31:39;12.30;;;6.20;;
4889;SDS011;2459;42.268;23.112;2022-11-24T02:34:08;12.10;;;5.60;;
4889;SDS011;2459;42.268;23.112;2022-11-24T02:36:35;9.17;;;5.30;;
4889;SDS011;2459;42.268;23.112;2022-11-24T02:39:01;7.60;;;4.20;;
4889;SDS011;2459;42.268;23.112;2022-11-24T02:41:27;11.83;;;5.70;;
4889;SDS011;2459;42.268;23.112;2022-11-24T02:43:56;17.50;;;5.27;;
4889;SDS011;2459;42.268;23.112;2022-11-24T02:46:23;10.17;;;5.63;;
4889;SDS011;2459;42.268;23.112;2022-11-24T02:48:50;10.27;;;5.60;;
4889;SDS011;2459;42.268;23.112;2022-11-24T02:51:16;10.83;;;5.60;;
4889;SDS011;2459;42.268;23.112;2022-11-24T02:53:43;15.80;;;11.57;;
4889;SDS011;2459;42.268;23.112;2022-11-24T02:56:09;15.70;;;8.57;;
4889;SDS011;2459;42.268;23.112;2022-11-24T02:58:36;17.60;;;7.20;;
4889;SDS011;2459;42.268;23.112;2022-11-24T03:01:04;10.73;;;6.57;;
4889;SDS011;2459;42.268;23.112;2022-11-24T03:03:30;20.53;;;6.00;;
4889;SDS011;2459;42.268;23.112;2022-11-24T03:05:56;10.33;;;5.80;;
4889;SDS011;2459;42.268;23.112;2022-11-24T03:08:23;14.40;;;7.10;;
4889;SDS011;2459;42.268;23.112;2022-11-24T03:10:49;20.70;;;7.97;;
4889;SDS011;2459;42.268;23.112;2022-11-24T03:13:16;22.20;;;8.07;;
4889;SDS011;2459;42.268;23.112;2022-11-24T03:15:42;22.33;;;8.40;;
4889;SDS011;2459;42.268;23.112;2022-11-24T03:18:10;16.33;;;8.77;;
4889;SDS011;2459;42.268;23.112;2022-11-24T03:20:37;11.80;;;6.93;;
4889;SDS011;2459;42.268;23.112;2022-11-24T03:23:03;11.00;;;6.90;;
4889;SDS011;2459;42.268;23.112;2022-11-24T03:25:30;18.03;;;6.10;;
4889;SDS011;2459;42.268;23.112;2022-11-24T03:27:56;13.30;;;6.63;;
4889;SDS011;2459;42.268;23.112;2022-11-24T03:30:23;15.93;;;6.93;;
4889;SDS011;2459;42.268;23.112;2022-11-24T03:32:49;14.93;;;7.70;;
4889;SDS011;2459;42.268;23.112;2022-11-24T03:35:17;26.10;;;8.30;;
4889;SDS011;2459;42.268;23.112;2022-11-24T03:37:44;13.20;;;6.60;;
4889;SDS011;2459;42.268;23.112;2022-11-24T03:40:10;14.60;;;6.07;;
4889;SDS011;2459;42.268;23.112;2022-11-24T03:42:37;12.10;;;6.43;;
4889;SDS011;2459;42.268;23.112;2022-11-24T03:45:04;13.70;;;7.80;;
4889;SDS011;2459;42.268;23.112;2022-11-24T03:47:31;10.07;;;5.90;;
4889;SDS011;2459;42.268;23.112;2022-11-24T03:49:57;27.57;;;12.13;;
4889;SDS011;2459;42.268;23.112;2022-11-24T03:52:25;58.73;;;26.10;;
4889;SDS011;2459;42.268;23.112;2022-11-24T03:54:52;23.03;;;12.03;;
4889;SDS011;2459;42.268;23.112;2022-11-24T03:57:18;18.87;;;8.93;;
4889;SDS011;2459;42.268;23.112;2022-11-24T03:59:45;12.80;;;6.93;;
4889;SDS011;2459;42.268;23.112;2022-11-24T04:02:11;12.20;;;6.40;;
4889;SDS011;2459;42.268;23.112;2022-11-24T04:04:38;11.47;;;6.50;;
4889;SDS011;2459;42.268;23.112;2022-11-24T04:07:04;158.00;;;46.90;;
4889;SDS011;2459;42.268;23.112;2022-11-24T04:09:32;103.50;;;33.07;;
4889;SDS011;2459;42.268;23.112;2022-11-24T04:11:58;28.13;;;10.63;;
4889;SDS011;2459;42.268;23.112;2022-11-24T04:14:42;13.40;;;7.20;;
4889;SDS011;2459;42.268;23.112;2022-11-24T04:17:09;12.20;;;5.93;;
4889;SDS011;2459;42.268;23.112;2022-11-24T04:19:35;30.53;;;13.13;;
4889;SDS011;2459;42.268;23.112;2022-11-24T04:22:02;29.53;;;11.30;;
4889;SDS011;2459;42.268;23.112;2022-11-24T04:24:28;19.80;;;8.77;;
4889;SDS011;2459;42.268;23.112;2022-11-24T04:26:56;38.47;;;13.27;;
4889;SDS011;2459;42.268;23.112;2022-11-24T04:29:22;27.33;;;9.80;;
4889;SDS011;2459;42.268;23.112;2022-11-24T04:31:49;16.73;;;6.30;;
4889;SDS011;2459;42.268;23.112;2022-11-24T04:34:15;23.10;;;7.10;;
4889;SDS011;2459;42.268;23.112;2022-11-24T04:36:42;14.80;;;7.07;;
4889;SDS011;2459;42.268;23.112;2022-11-24T04:39:08;15.50;;;7.17;;
4889;SDS011;2459;42.268;23.112;2022-11-24T04:41:35;15.63;;;7.17;;
4889;SDS011;2459;42.268;23.112;2022-11-24T04:44:02;24.80;;;7.90;;
4889;SDS011;2459;42.268;23.112;2022-11-24T04:46:29;15.57;;;7.50;;
4889;SDS011;2459;42.268;23.112;2022-11-24T04:48:55;18.20;;;7.77;;
4889;SDS011;2459;42.268;23.112;2022-11-24T04:51:22;15.10;;;8.53;;
4889;SDS011;2459;42.268;23.112;2022-11-24T04:53:48;15.97;;;9.13;;
4889;SDS011;2459;42.268;23.112;2022-11-24T04:56:15;20.87;;;9.90;;
4889;SDS011;2459;42.268;23.112;2022-11-24T04:58:41;26.83;;;9.77;;
4889;SDS011;2459;42.268;23.112;2022-11-24T05:01:09;19.23;;;10.33;;
4889;SDS011;2459;42.268;23.112;2022-11-24T05:03:35;17.80;;;9.30;;
4889;SDS011;2459;42.268;23.112;2022-11-24T05:06:02;16.10;;;8.30;;
4889;SDS011;2459;42.268;23.112;2022-11-24T05:08:28;30.67;;;9.30;;
4889;SDS011;2459;42.268;23.112;2022-11-24T05:10:55;32.00;;;9.07;;
4889;SDS011;2459;42.268;23.112;2022-11-24T05:13:21;24.50;;;10.37;;
4889;SDS011;2459;42.268;23.112;2022-11-24T05:15:48;34.63;;;10.77;;
4889;SDS011;2459;42.268;23.112;2022-11-24T05:18:16;25.73;;;8.53;;
4889;SDS011;2459;42.268;23.112;2022-11-24T05:20:42;21.13;;;10.00;;
4889;SDS011;2459;42.268;23.112;2022-11-24T05:23:09;25.47;;;12.10;;
4889;SDS011;2459;42.268;23.112;2022-11-24T05:25:36;28.43;;;11.27;;
4889;SDS011;2459;42.268;23.112;2022-11-24T05:28:03;21.37;;;10.30;;
4889;SDS011;2459;42.268;23.112;2022-11-24T05:30:32;30.17;;;10.83;;
4889;SDS011;2459;42.268;23.112;2022-11-24T05:33:03;42.03;;;14.70;;
4889;SDS011;2459;42.268;23.112;2022-11-24T05:35:31;18.83;;;9.30;;
4889;SDS011;2459;42.268;23.112;2022-11-24T05:37:57;17.70;;;8.00;;
4889;SDS011;2459;42.268;23.112;2022-11-24T05:40:24;15.60;;;6.93;;
4889;SDS011;2459;42.268;23.112;2022-11-24T05:42:50;17.00;;;8.93;;
4889;SDS011;2459;42.268;23.112;2022-11-24T05:45:17;15.90;;;6.83;;
4889;SDS011;2459;42.268;23.112;2022-11-24T05:47:44;16.37;;;8.40;;
4889;SDS011;2459;42.268;23.112;2022-11-24T05:50:11;16.60;;;8.60;;
4889;SDS011;2459;42.268;23.112;2022-11-24T05:52:40;19.40;;;8.20;;
4889;SDS011;2459;42.268;23.112;2022-11-24T05:55:07;38.40;;;17.40;;
4889;SDS011;2459;42.268;23.112;2022-11-24T05:57:34;19.93;;;10.03;;
4889;SDS011;2459;42.268;23.112;2022-11-24T06:00:00;19.93;;;9.07;;
4889;SDS011;2459;42.268;23.112;2022-11-24T06:02:28;23.43;;;10.70;;
4889;SDS011;2459;42.268;23.112;2022-11-24T06:04:54;22.73;;;11.20;;
4889;SDS011;2459;42.268;23.112;2022-11-24T06:07:20;37.53;;;13.17;;
4889;SDS011;2459;42.268;23.112;2022-11-24T06:09:48;36.60;;;17.00;;
4889;SDS011;2459;42.268;23.112;2022-11-24T06:12:15;29.40;;;15.80;;
4889;SDS011;2459;42.268;23.112;2022-11-24T06:14:41;39.23;;;16.20;;
4889;SDS011;2459;42.268;23.112;2022-11-24T06:17:08;25.80;;;14.70;;
4889;SDS011;2459;42.268;23.112;2022-11-24T06:19:35;29.43;;;13.70;;
4889;SDS011;2459;42.268;23.112;2022-11-24T06:22:01;48.37;;;20.67;;
4889;SDS011;2459;42.268;23.112;2022-11-24T06:24:28;38.50;;;15.83;;
4889;SDS011;2459;42.268;23.112;2022-11-24T06:26:55;24.77;;;12.97;;
4889;SDS011;2459;42.268;23.112;2022-11-24T06:29:22;31.83;;;13.77;;
4889;SDS011;2459;42.268;23.112;2022-11-24T06:31:48;28.83;;;12.87;;
4889;SDS011;2459;42.268;23.112;2022-11-24T06:34:15;34.13;;;13.20;;
4889;SDS011;2459;42.268;23.112;2022-11-24T06:36:41;33.50;;;15.33;;
4889;SDS011;2459;42.268;23.112;2022-11-24T06:39:08;41.03;;;15.97;;
4889;SDS011;2459;42.268;23.112;2022-11-24T06:41:35;57.27;;;19.60;;
4889;SDS011;2459;42.268;23.112;2022-11-24T06:44:03;42.93;;;16.97;;
4889;SDS011;2459;42.268;23.112;2022-11-24T06:46:30;52.27;;;17.97;;
4889;SDS011;2459;42.268;23.112;2022-11-24T06:48:56;51.63;;;22.07;;
4889;SDS011;2459;42.268;23.112;2022-11-24T06:51:23;52.00;;;21.77;;
4889;SDS011;2459;42.268;23.112;2022-11-24T06:53:51;45.33;;;19.40;;
4889;SDS011;2459;42.268;23.112;2022-11-24T06:56:17;43.60;;;20.27;;
4889;SDS011;2459;42.268;23.112;2022-11-24T06:58:45;43.33;;;18.30;;
4889;SDS011;2459;42.268;23.112;2022-11-24T07:01:14;41.53;;;16.33;;
4889;SDS011;2459;42.268;23.112;2022-11-24T07:03:40;42.27;;;18.03;;
4889;SDS011;2459;42.268;23.112;2022-11-24T07:06:07;34.97;;;18.20;;
4889;SDS011;2459;42.268;23.112;2022-11-24T07:08:34;39.70;;;17.33;;
4889;SDS011;2459;42.268;23.112;2022-11-24T07:11:02;39.27;;;18.83;;
4889;SDS011;2459;42.268;23.112;2022-11-24T07:13:28;56.43;;;23.87;;
4889;SDS011;2459;42.268;23.112;2022-11-24T07:15:55;41.93;;;19.07;;
4889;SDS011;2459;42.268;23.112;2022-11-24T07:18:23;31.27;;;14.90;;
4889;SDS011;2459;42.268;23.112;2022-11-24T07:20:50;44.23;;;14.30;;
4889;SDS011;2459;42.268;23.112;2022-11-24T07:23:16;41.73;;;16.20;;
4889;SDS011;2459;42.268;23.112;2022-11-24T07:25:42;40.10;;;14.53;;
4889;SDS011;2459;42.268;23.112;2022-11-24T07:28:09;42.10;;;16.33;;
4889;SDS011;2459;42.268;23.112;2022-11-24T07:30:36;25.70;;;13.23;;
4889;SDS011;2459;42.268;23.112;2022-11-24T07:33:02;24.03;;;12.17;;
4889;SDS011;2459;42.268;23.112;2022-11-24T07:35:30;43.60;;;16.33;;
4889;SDS011;2459;42.268;23.112;2022-11-24T07:37:57;33.53;;;12.60;;
4889;SDS011;2459;42.268;23.112;2022-11-24T07:40:24;20.87;;;9.50;;
4889;SDS011;2459;42.268;23.112;2022-11-24T07:42:51;32.70;;;10.67;;
4889;SDS011;2459;42.268;23.112;2022-11-24T07:45:17;25.70;;;10.37;;
4889;SDS011;2459;42.268;23.112;2022-11-24T07:47:44;40.33;;;10.80;;
4889;SDS011;2459;42.268;23.112;2022-11-24T07:50:10;27.73;;;11.17;;
4889;SDS011;2459;42.268;23.112;2022-11-24T07:52:38;25.63;;;9.80;;
4889;SDS011;2459;42.268;23.112;2022-11-24T07:55:05;28.63;;;12.80;;
4889;SDS011;2459;42.268;23.112;2022-11-24T07:57:32;26.67;;;10.83;;
4889;SDS011;2459;42.268;23.112;2022-11-24T07:59:59;48.90;;;12.70;;
4889;SDS011;2459;42.268;23.112;2022-11-24T08:02:25;33.43;;;13.07;;
4889;SDS011;2459;42.268;23.112;2022-11-24T08:04:52;25.10;;;10.40;;
4889;SDS011;2459;42.268;23.112;2022-11-24T08:07:18;20.83;;;10.10;;
4889;SDS011;2459;42.268;23.112;2022-11-24T08:09:46;29.13;;;11.40;;
4889;SDS011;2459;42.268;23.112;2022-11-24T08:12:14;34.63;;;12.33;;
4889;SDS011;2459;42.268;23.112;2022-11-24T08:14:41;30.93;;;14.13;;
4889;SDS011;2459;42.268;23.112;2022-11-24T08:17:08;32.10;;;14.97;;
4889;SDS011;2459;42.268;23.112;2022-11-24T08:19:34;42.17;;;11.60;;
4889;SDS011;2459;42.268;23.112;2022-11-24T08:22:01;30.10;;;12.70;;
4889;SDS011;2459;42.268;23.112;2022-11-24T08:24:27;28.57;;;13.30;;
4889;SDS011;2459;42.268;23.112;2022-11-24T08:26:56;32.43;;;13.30;;
4889;SDS011;2459;42.268;23.112;2022-11-24T08:29:26;35.13;;;12.20;;
4889;SDS011;2459;42.268;23.112;2022-11-24T08:31:52;35.30;;;13.23;;
4889;SDS011;2459;42.268;23.112;2022-11-24T08:34:21;35.93;;;14.00;;
4889;SDS011;2459;42.268;23.112;2022-11-24T08:36:47;33.47;;;15.17;;
4889;SDS011;2459;42.268;23.112;2022-11-24T08:39:14;38.10;;;14.97;;
4889;SDS011;2459;42.268;23.112;2022-11-24T08:41:40;37.03;;;14.90;;
4889;SDS011;2459;42.268;23.112;2022-11-24T08:44:08;32.00;;;13.60;;
4889;SDS011;2459;42.268;23.112;2022-11-24T08:46:35;31.40;;;14.47;;
4889;SDS011;2459;42.268;23.112;2022-11-24T08:49:02;55.70;;;16.97;;
4889;SDS011;2459;42.268;23.112;2022-11-24T08:51:29;42.77;;;16.03;;
4889;SDS011;2459;42.268;23.112;2022-11-24T08:53:56;46.13;;;18.53;;
4889;SDS011;2459;42.268;23.112;2022-11-24T08:56:22;47.47;;;18.70;;
4889;SDS011;2459;42.268;23.112;2022-11-24T08:58:49;49.90;;;17.97;;
4889;SDS011;2459;42.268;23.112;2022-11-24T09:01:17;47.10;;;16.40;;
4889;SDS011;2459;42.268;23.112;2022-11-24T09:03:45;34.67;;;15.87;;
4889;SDS011;2459;42.268;23.112;2022-11-24T09:06:12;47.77;;;20.20;;
4889;SDS011;2459;42.268;23.112;2022-11-24T09:08:38;55.50;;;22.10;;
4889;SDS011;2459;42.268;23.112;2022-11-24T09:11:05;56.07;;;21.23;;
4889;SDS011;2459;42.268;23.112;2022-11-24T09:13:32;78.87;;;35.90;;
4889;SDS011;2459;42.268;23.112;2022-11-24T09:16:01;56.97;;;25.17;;
4889;SDS011;2459;42.268;23.112;2022-11-24T09:18:30;60.47;;;24.50;;
4889;SDS011;2459;42.268;23.112;2022-11-24T09:21:04;65.10;;;17.80;;
4889;SDS011;2459;42.268;23.112;2022-11-24T09:23:31;49.90;;;18.60;;
4889;SDS011;2459;42.268;23.112;2022-11-24T09:26:01;51.07;;;21.00;;
4889;SDS011;2459;42.268;23.112;2022-11-24T09:28:27;53.13;;;20.00;;
4889;SDS011;2459;42.268;23.112;2022-11-24T09:30:54;52.33;;;22.10;;
4889;SDS011;2459;42.268;23.112;2022-11-24T09:33:20;55.50;;;23.67;;
4889;SDS011;2459;42.268;23.112;2022-11-24T09:35:49;42.43;;;22.20;;
4889;SDS011;2459;42.268;23.112;2022-11-24T09:38:16;56.53;;;21.80;;
4889;SDS011;2459;42.268;23.112;2022-11-24T09:40:43;43.70;;;13.27;;
4889;SDS011;2459;42.268;23.112;2022-11-24T09:43:10;35.03;;;7.40;;
4889;SDS011;2459;42.268;23.112;2022-11-24T09:45:40;22.53;;;6.97;;
4889;SDS011;2459;42.268;23.112;2022-11-24T09:48:08;8.10;;;4.60;;
4889;SDS011;2459;42.268;23.112;2022-11-24T09:50:36;9.40;;;4.10;;
4889;SDS011;2459;42.268;23.112;2022-11-24T09:53:06;7.77;;;3.97;;
4889;SDS011;2459;42.268;23.112;2022-11-24T09:55:36;11.37;;;3.90;;
4889;SDS011;2459;42.268;23.112;2022-11-24T09:58:11;15.20;;;3.90;;
4889;SDS011;2459;42.268;23.112;2022-11-24T10:00:38;13.37;;;4.33;;
4889;SDS011;2459;42.268;23.112;2022-11-24T10:03:07;10.80;;;3.60;;
4889;SDS011;2459;42.268;23.112;2022-11-24T10:05:38;8.93;;;4.40;;
4889;SDS011;2459;42.268;23.112;2022-11-24T10:08:09;17.57;;;5.60;;
4889;SDS011;2459;42.268;23.112;2022-11-24T10:10:43;5.40;;;4.30;;
4889;SDS011;2459;42.268;23.112;2022-11-24T10:13:20;11.63;;;5.23;;
4889;SDS011;2459;42.268;23.112;2022-11-24T10:15:51;10.03;;;5.53;;
4889;SDS011;2459;42.268;23.112;2022-11-24T10:18:26;15.93;;;5.77;;
4889;SDS011;2459;42.268;23.112;2022-11-24T10:21:00;8.77;;;5.80;;
4889;SDS011;2459;42.268;23.112;2022-11-24T10:23:39;9.87;;;5.90;;
4889;SDS011;2459;42.268;23.112;2022-11-24T10:26:14;25.60;;;6.93;;
4889;SDS011;2459;42.268;23.112;2022-11-24T10:28:44;12.53;;;6.13;;
4889;SDS011;2459;42.268;23.112;2022-11-24T10:31:15;7.77;;;5.73;;
4889;SDS011;2459;42.268;23.112;2022-11-24T10:33:43;15.60;;;6.30;;
4889;SDS011;2459;42.268;23.112;2022-11-24T10:36:10;7.80;;;5.87;;
4889;SDS011;2459;42.268;23.112;2022-11-24T10:38:42;9.53;;;5.37;;
4889;SDS011;2459;42.268;23.112;2022-11-24T10:41:10;13.73;;;6.27;;
4889;SDS011;2459;42.268;23.112;2022-11-24T10:43:37;8.30;;;6.27;;
4889;SDS011;2459;42.268;23.112;2022-11-24T10:46:08;10.80;;;5.57;;
4889;SDS011;2459;42.268;23.112;2022-11-24T10:48:37;10.97;;;5.80;;
4889;SDS011;2459;42.268;23.112;2022-11-24T10:51:10;11.87;;;6.37;;
4889;SDS011;2459;42.268;23.112;2022-11-24T10:53:44;10.80;;;5.60;;
4889;SDS011;2459;42.268;23.112;2022-11-24T10:56:11;6.47;;;4.63;;
4889;SDS011;2459;42.268;23.112;2022-11-24T10:58:37;8.93;;;5.67;;
4889;SDS011;2459;42.268;23.112;2022-11-24T11:01:20;5.03;;;4.30;;
4889;SDS011;2459;42.268;23.112;2022-11-24T11:03:51;5.90;;;3.20;;
4889;SDS011;2459;42.268;23.112;2022-11-24T11:06:20;4.53;;;3.77;;
4889;SDS011;2459;42.268;23.112;2022-11-24T11:08:48;6.30;;;4.03;;
4889;SDS011;2459;42.268;23.112;2022-11-24T11:11:19;5.93;;;4.17;;
4889;SDS011;2459;42.268;23.112;2022-11-24T11:13:47;7.27;;;3.17;;
4889;SDS011;2459;42.268;23.112;2022-11-24T11:16:28;3.60;;;2.97;;
4889;SDS011;2459;42.268;23.112;2022-11-24T11:18:55;6.63;;;3.70;;
4889;SDS011;2459;42.268;23.112;2022-11-24T11:21:31;4.30;;;2.77;;
4889;SDS011;2459;42.268;23.112;2022-11-24T11:23:59;4.93;;;2.90;;
4889;SDS011;2459;42.268;23.112;2022-11-24T11:26:30;7.80;;;3.30;;
4889;SDS011;2459;42.268;23.112;2022-11-24T11:28:58;5.17;;;3.40;;
4889;SDS011;2459;42.268;23.112;2022-11-24T11:31:27;12.33;;;7.10;;
4889;SDS011;2459;42.268;23.112;2022-11-24T11:33:58;4.83;;;2.43;;
4889;SDS011;2459;42.268;23.112;2022-11-24T11:36:24;5.93;;;3.60;;
4889;SDS011;2459;42.268;23.112;2022-11-24T11:38:52;1.50;;;1.40;;
4889;SDS011;2459;42.268;23.112;2022-11-24T11:41:20;2.93;;;2.10;;
4889;SDS011;2459;42.268;23.112;2022-11-24T11:43:49;2.50;;;1.87;;
4889;SDS011;2459;42.268;23.112;2022-11-24T11:46:17;3.93;;;2.47;;
4889;SDS011;2459;42.268;23.112;2022-11-24T11:48:44;3.13;;;2.03;;
4889;SDS011;2459;42.268;23.112;2022-11-24T11:51:19;1.73;;;1.50;;
4889;SDS011;2459;42.268;23.112;2022-11-24T11:53:48;3.70;;;2.13;;
4889;SDS011;2459;42.268;23.112;2022-11-24T11:56:22;2.13;;;1.93;;
4889;SDS011;2459;42.268;23.112;2022-11-24T11:59:04;2.83;;;2.07;;
4889;SDS011;2459;42.268;23.112;2022-11-24T12:01:36;3.00;;;2.10;;
4889;SDS011;2459;42.268;23.112;2022-11-24T12:04:14;8.73;;;3.80;;
4889;SDS011;2459;42.268;23.112;2022-11-24T12:06:51;2.73;;;2.50;;
4889;SDS011;2459;42.268;23.112;2022-11-24T12:09:32;2.03;;;1.90;;
4889;SDS011;2459;42.268;23.112;2022-11-24T12:12:07;4.10;;;2.83;;
4889;SDS011;2459;42.268;23.112;2022-11-24T12:14:39;2.60;;;2.10;;
4889;SDS011;2459;42.268;23.112;2022-11-24T12:17:09;5.33;;;2.80;;
4889;SDS011;2459;42.268;23.112;2022-11-24T12:22:34;11.40;;;4.63;;
4889;SDS011;2459;42.268;23.112;2022-11-24T12:25:10;7.70;;;4.37;;
4889;SDS011;2459;42.268;23.112;2022-11-24T12:27:40;4.00;;;3.13;;
4889;SDS011;2459;42.268;23.112;2022-11-24T12:30:12;3.60;;;2.87;;
4889;SDS011;2459;42.268;23.112;2022-11-24T12:32:49;8.50;;;3.50;;
4889;SDS011;2459;42.268;23.112;2022-11-24T12:35:19;3.60;;;3.27;;
4889;SDS011;2459;42.268;23.112;2022-11-24T12:37:51;3.50;;;2.30;;
4889;SDS011;2459;42.268;23.112;2022-11-24T12:40:22;3.77;;;3.20;;
4889;SDS011;2459;42.268;23.112;2022-11-24T12:42:56;8.73;;;3.40;;
4889;SDS011;2459;42.268;23.112;2022-11-24T12:45:27;18.80;;;6.50;;
4889;SDS011;2459;42.268;23.112;2022-11-24T12:48:07;19.40;;;8.67;;
4889;SDS011;2459;42.268;23.112;2022-11-24T12:50:38;6.00;;;3.87;;
4889;SDS011;2459;42.268;23.112;2022-11-24T12:53:08;16.87;;;6.57;;
4889;SDS011;2459;42.268;23.112;2022-11-24T12:55:37;20.83;;;8.50;;
4889;SDS011;2459;42.268;23.112;2022-11-24T12:58:09;11.73;;;6.20;;
4889;SDS011;2459;42.268;23.112;2022-11-24T13:00:38;13.63;;;7.07;;
4889;SDS011;2459;42.268;23.112;2022-11-24T13:03:16;12.20;;;5.70;;
4889;SDS011;2459;42.268;23.112;2022-11-24T13:05:49;12.80;;;6.10;;
4889;SDS011;2459;42.268;23.112;2022-11-24T13:08:17;11.97;;;5.30;;
4889;SDS011;2459;42.268;23.112;2022-11-24T13:10:44;37.67;;;11.40;;
4889;SDS011;2459;42.268;23.112;2022-11-24T13:13:13;13.57;;;7.10;;
4889;SDS011;2459;42.268;23.112;2022-11-24T13:23:54;7.87;;;4.20;;
4889;SDS011;2459;42.268;23.112;2022-11-24T13:26:26;5.87;;;3.80;;
4889;SDS011;2459;42.268;23.112;2022-11-24T13:28:57;11.63;;;3.70;;
4889;SDS011;2459;42.268;23.112;2022-11-24T13:31:25;8.00;;;3.27;;
4889;SDS011;2459;42.268;23.112;2022-11-24T13:33:52;7.37;;;3.77;;
4889;SDS011;2459;42.268;23.112;2022-11-24T13:39:00;7.13;;;4.20;;
4889;SDS011;2459;42.268;23.112;2022-11-24T13:44:20;9.10;;;4.70;;
4889;SDS011;2459;42.268;23.112;2022-11-24T13:46:54;11.00;;;5.47;;
4889;SDS011;2459;42.268;23.112;2022-11-24T13:49:21;8.80;;;5.60;;
4889;SDS011;2459;42.268;23.112;2022-11-24T13:51:47;11.13;;;4.60;;
4889;SDS011;2459;42.268;23.112;2022-11-24T13:54:17;8.90;;;4.57;;
4889;SDS011;2459;42.268;23.112;2022-11-24T13:56:44;8.23;;;4.97;;
4889;SDS011;2459;42.268;23.112;2022-11-24T13:59:14;10.20;;;4.43;;
4889;SDS011;2459;42.268;23.112;2022-11-24T14:01:44;10.30;;;5.57;;
4889;SDS011;2459;42.268;23.112;2022-11-24T14:04:17;6.67;;;4.63;;
4889;SDS011;2459;42.268;23.112;2022-11-24T14:06:44;7.83;;;4.27;;
4889;SDS011;2459;42.268;23.112;2022-11-24T14:09:18;6.63;;;3.57;;
4889;SDS011;2459;42.268;23.112;2022-11-24T14:11:45;4.63;;;3.60;;
4889;SDS011;2459;42.268;23.112;2022-11-24T14:14:19;4.90;;;3.20;;
4889;SDS011;2459;42.268;23.112;2022-11-24T14:16:47;12.13;;;5.93;;
4889;SDS011;2459;42.268;23.112;2022-11-24T14:19:16;5.70;;;3.00;;
4889;SDS011;2459;42.268;23.112;2022-11-24T14:21:43;5.60;;;3.30;;
4889;SDS011;2459;42.268;23.112;2022-11-24T14:27:10;2.23;;;2.03;;
4889;SDS011;2459;42.268;23.112;2022-11-24T14:29:38;9.93;;;4.77;;
4889;SDS011;2459;42.268;23.112;2022-11-24T14:32:17;8.87;;;4.30;;
4889;SDS011;2459;42.268;23.112;2022-11-24T14:34:46;8.20;;;4.70;;
4889;SDS011;2459;42.268;23.112;2022-11-24T14:37:12;12.27;;;5.10;;
4889;SDS011;2459;42.268;23.112;2022-11-24T14:39:39;15.47;;;4.43;;
4889;SDS011;2459;42.268;23.112;2022-11-24T14:42:13;10.80;;;6.10;;
4889;SDS011;2459;42.268;23.112;2022-11-24T14:44:42;6.63;;;4.30;;
4889;SDS011;2459;42.268;23.112;2022-11-24T14:47:12;7.50;;;4.87;;
4889;SDS011;2459;42.268;23.112;2022-11-24T14:49:41;9.63;;;6.10;;
4889;SDS011;2459;42.268;23.112;2022-11-24T14:52:09;4.53;;;3.80;;
4889;SDS011;2459;42.268;23.112;2022-11-24T14:54:37;12.40;;;5.53;;
4889;SDS011;2459;42.268;23.112;2022-11-24T14:57:20;13.80;;;4.90;;
4889;SDS011;2459;42.268;23.112;2022-11-24T15:00:01;17.80;;;11.00;;
4889;SDS011;2459;42.268;23.112;2022-11-24T15:02:38;15.03;;;6.30;;
4889;SDS011;2459;42.268;23.112;2022-11-24T15:05:07;12.90;;;7.80;;
4889;SDS011;2459;42.268;23.112;2022-11-24T15:07:34;13.67;;;5.20;;
4889;SDS011;2459;42.268;23.112;2022-11-24T15:10:02;10.40;;;5.00;;
4889;SDS011;2459;42.268;23.112;2022-11-24T15:12:29;8.47;;;4.90;;
4889;SDS011;2459;42.268;23.112;2022-11-24T15:14:59;13.13;;;7.60;;